Time;durP1;ratioP1;P1;durP2;ratioP2;P2;SDS_P1;SDS_P2;PMS_P1;PMS_P2;Temp;Humidity;BMP_temperature;BMP_pressure;BME280_temperature;BME280_humidity;BME280_pressure;Samples;Min_cycle;Max_cycle;Signal;HPM_P1;HPM_P2
2024/01/16 00:00:19;;;;;;;7.80;7.10;;;;;;;-1.24;100.00;100193.03;10195706;28;20111;-73
2024/01/16 00:05:15;;;;;;;8.43;7.60;;;;;;;-1.16;100.00;100195.28;10195716;28;20046;-73
2024/01/16 00:10:12;;;;;;;8.57;7.43;;;;;;;-1.46;100.00;100211.88;10195669;28;20045;-73
2024/01/16 00:15:08;;;;;;;11.23;7.25;;;;;;;-1.43;100.00;100213.22;10194750;28;20099;-73
2024/01/16 00:20:06;;;;;;;8.38;7.50;;;;;;;-1.39;100.00;100212.47;10195061;28;20046;-73
2024/01/16 00:25:02;;;;;;;11.35;7.22;;;;;;;-1.38;100.00;100224.00;10194793;28;20394;-72
2024/01/16 00:29:59;;;;;;;10.73;7.90;;;;;;;-1.28;100.00;100230.31;10196542;28;20409;-73
2024/01/16 00:34:55;;;;;;;8.68;7.85;;;;;;;-1.31;100.00;100227.31;10194225;28;20038;-73
2024/01/16 00:39:52;;;;;;;8.95;8.05;;;;;;;-1.45;100.00;100242.16;10195474;28;20056;-72
2024/01/16 00:44:48;;;;;;;8.68;7.82;;;;;;;-1.59;100.00;100239.84;10193944;28;20049;-72
2024/01/16 00:49:45;;;;;;;7.53;6.80;;;;;;;-1.65;100.00;100246.19;10193400;28;20818;-72
2024/01/16 00:54:43;;;;;;;11.95;7.18;;;;;;;-1.65;100.00;100262.28;10194757;28;20045;-73
2024/01/16 00:59:39;;;;;;;7.35;6.10;;;;;;;-1.82;100.00;100280.28;10194365;28;20116;-72
2024/01/16 01:04:36;;;;;;;8.30;6.18;;;;;;;-1.66;100.00;100276.75;10193875;28;20497;-72
2024/01/16 01:09:32;;;;;;;7.47;5.88;;;;;;;-1.83;100.00;100281.31;10193357;28;20038;-72
2024/01/16 01:14:29;;;;;;;7.28;6.05;;;;;;;-1.72;100.00;100275.88;10184937;28;20042;-71
2024/01/16 01:19:26;;;;;;;7.40;6.70;;;;;;;-1.77;100.00;100281.16;10193459;28;20490;-71
2024/01/16 01:24:22;;;;;;;6.55;5.82;;;;;;;-1.88;100.00;100279.41;10192942;28;20042;-71
2024/01/16 01:29:19;;;;;;;10.48;6.05;;;;;;;-1.84;100.00;100274.34;10192576;28;20386;-71
2024/01/16 01:34:16;;;;;;;6.75;6.05;;;;;;;-1.79;100.00;100288.63;10193049;28;20173;-71
2024/01/16 01:39:12;;;;;;;6.95;6.25;;;;;;;-1.73;100.00;100298.38;10193082;28;20049;-71
2024/01/16 01:44:15;;;;;;;7.05;6.28;;;;;;;-1.77;100.00;100297.22;10192741;28;20080;-70
2024/01/16 01:49:13;;;;;;;6.60;6.00;;;;;;;-1.73;100.00;100308.28;10192161;28;20042;-70
2024/01/16 01:54:11;;;;;;;6.88;6.05;;;;;;;-1.71;100.00;100306.16;10191190;28;20041;-70
2024/01/16 01:59:08;;;;;;;10.18;6.85;;;;;;;-1.57;100.00;100302.06;10191664;28;20655;-70
2024/01/16 02:04:06;;;;;;;9.57;6.78;;;;;;;-1.55;100.00;100299.97;10191602;28;20112;-70
2024/01/16 02:09:06;;;;;;;10.75;7.40;;;;;;;-1.64;100.00;100328.25;10190506;28;20041;-70
2024/01/16 02:14:02;;;;;;;10.88;8.10;;;;;;;-1.59;100.00;100335.56;10191628;28;20038;-70
2024/01/16 02:18:59;;;;;;;8.45;7.53;;;;;;;-1.69;100.00;100336.22;10190576;28;20044;-70
2024/01/16 02:23:56;;;;;;;10.02;8.57;;;;;;;-1.78;100.00;100348.41;10190643;28;20041;-70
2024/01/16 02:28:52;;;;;;;13.00;8.65;;;;;;;-1.51;100.00;100338.63;10191885;28;20424;-70
2024/01/16 02:33:49;;;;;;;11.00;9.60;;;;;;;-1.63;100.00;100345.13;10190383;28;20046;-69
2024/01/16 02:38:45;;;;;;;11.35;8.55;;;;;;;-1.79;100.00;100336.06;10190368;28;20053;-69
2024/01/16 02:43:43;;;;;;;12.52;9.63;;;;;;;-1.78;100.00;100337.69;10198599;28;20050;-69
2024/01/16 02:48:39;;;;;;;9.50;8.38;;;;;;;-1.68;100.00;100348.56;10198272;28;20050;-69
2024/01/16 02:53:36;;;;;;;8.88;7.93;;;;;;;-1.61;100.00;100346.50;10198667;28;20133;-69
2024/01/16 02:58:32;;;;;;;11.20;9.25;;;;;;;-1.68;100.00;100343.19;10198822;28;20045;-69
2024/01/16 03:03:29;;;;;;;12.63;9.98;;;;;;;-1.75;100.00;100342.56;10190205;28;20084;-70
2024/01/16 03:08:26;;;;;;;13.50;11.98;;;;;;;-1.83;100.00;100340.28;10197965;28;20125;-69
2024/01/16 03:13:22;;;;;;;17.65;13.50;;;;;;;-1.85;100.00;100345.91;10198158;28;20138;-69
2024/01/16 03:18:19;;;;;;;17.73;11.85;;;;;;;-1.81;100.00;100335.47;10196879;28;20045;-69
2024/01/16 03:23:15;;;;;;;16.60;12.05;;;;;;;-1.86;100.00;100348.81;10196350;28;20629;-69
2024/01/16 03:28:12;;;;;;;13.23;11.82;;;;;;;-1.95;100.00;100340.38;10196879;28;20398;-69
2024/01/16 03:33:09;;;;;;;12.88;11.55;;;;;;;-1.88;100.00;100343.72;10196631;28;20053;-70
2024/01/16 03:38:06;;;;;;;11.98;10.73;;;;;;;-1.85;100.00;100342.41;10197385;28;20126;-69
2024/01/16 03:43:02;;;;;;;12.05;10.52;;;;;;;-1.94;100.00;100355.41;10196498;28;20064;-69
2024/01/16 03:47:59;;;;;;;12.65;11.35;;;;;;;-1.83;100.00;100345.63;10188736;28;20058;-71
2024/01/16 03:52:56;;;;;;;16.15;11.65;;;;;;;-1.64;100.00;100357.75;10195572;28;20052;-70
2024/01/16 03:57:52;;;;;;;13.75;11.50;;;;;;;-1.75;100.00;100358.63;10196481;28;20088;-69
2024/01/16 04:02:49;;;;;;;13.70;12.18;;;;;;;-1.76;100.00;100351.66;10197300;28;20045;-69
2024/01/16 04:07:46;;;;;;;14.10;12.60;;;;;;;-1.86;100.00;100346.94;10196170;28;20577;-69
2024/01/16 04:12:42;;;;;;;14.07;12.40;;;;;;;-1.85;100.00;100347.78;10197496;28;20046;-69
2024/01/16 04:17:39;;;;;;;13.82;12.50;;;;;;;-1.86;100.00;100346.13;10196296;28;20046;-69
2024/01/16 04:22:36;;;;;;;15.13;13.00;;;;;;;-1.96;100.00;100346.78;10194836;28;20053;-69
2024/01/16 04:27:32;;;;;;;17.00;12.93;;;;;;;-1.77;100.00;100352.72;10187032;28;20042;-69
2024/01/16 04:32:29;;;;;;;14.93;12.40;;;;;;;-1.78;100.00;100353.78;10196472;28;20498;-69
2024/01/16 04:37:25;;;;;;;12.95;11.63;;;;;;;-1.79;100.00;100357.50;10195481;28;20505;-69
2024/01/16 04:42:22;;;;;;;13.40;11.05;;;;;;;-1.87;100.00;100344.53;10196514;28;20440;-68
2024/01/16 04:47:18;;;;;;;12.48;11.18;;;;;;;-1.84;100.00;100344.03;10195103;28;20048;-69
2024/01/16 04:52:15;;;;;;;14.25;11.50;;;;;;;-1.95;100.00;100327.81;10195203;28;20038;-69
2024/01/16 04:57:12;;;;;;;13.77;11.82;;;;;;;-1.95;100.00;100325.13;10194286;28;20501;-69
2024/01/16 05:02:08;;;;;;;13.82;12.63;;;;;;;-2.02;100.00;100327.16;10194658;28;20402;-69
2024/01/16 05:07:05;;;;;;;14.05;12.65;;;;;;;-2.07;100.00;100307.50;10185402;28;20734;-69
2024/01/16 05:12:01;;;;;;;14.50;12.63;;;;;;;-2.04;100.00;100326.59;10194793;28;20049;-71
2024/01/16 05:16:58;;;;;;;13.70;12.55;;;;;;;-1.95;100.00;100324.28;10193690;28;20513;-69
2024/01/16 05:21:54;;;;;;;13.45;12.20;;;;;;;-2.00;100.00;100333.06;10193809;28;20052;-69
2024/01/16 05:26:51;;;;;;;13.70;12.52;;;;;;;-1.95;100.00;100346.56;10193669;28;20559;-69
2024/01/16 05:31:48;;;;;;;13.05;11.95;;;;;;;-1.87;100.00;100336.47;10193851;28;20049;-69
2024/01/16 05:36:44;;;;;;;13.02;12.00;;;;;;;-1.85;100.00;100331.69;10193532;28;20052;-69
2024/01/16 05:41:41;;;;;;;10.90;9.90;;;;;;;-1.66;100.00;100327.69;10193503;28;20494;-68
2024/01/16 05:46:37;;;;;;;11.10;10.20;;;;;;;-1.82;100.00;100323.16;10193362;28;20080;-68
2024/01/16 05:51:34;;;;;;;11.32;10.25;;;;;;;-1.70;100.00;100323.88;10190889;28;20400;-70
2024/01/16 05:56:31;;;;;;;11.43;10.48;;;;;;;-1.65;100.00;100321.25;10192154;28;20046;-68
2024/01/16 06:01:28;;;;;;;11.07;10.23;;;;;;;-1.61;100.00;100305.50;10191838;28;20037;-69
2024/01/16 06:06:25;;;;;;;10.77;9.98;;;;;;;-1.61;100.00;100306.31;10192237;28;20112;-69
2024/01/16 06:11:34;;;;;;;10.93;10.02;;;;;;;-1.67;100.00;100304.63;10191688;28;20185;-69
2024/01/16 06:16:31;;;;;;;11.27;10.32;;;;;;;-1.63;100.00;100291.53;10188372;28;20041;-69
2024/01/16 06:21:27;;;;;;;10.65;9.70;;;;;;;-1.52;100.00;100304.81;10198825;28;20144;-69
2024/01/16 06:26:24;;;;;;;12.93;11.50;;;;;;;-1.44;100.00;100300.09;10199917;28;20038;-69
2024/01/16 06:31:20;;;;;;;13.00;11.23;;;;;;;-1.33;100.00;100318.75;10199682;28;20096;-69
2024/01/16 06:36:17;;;;;;;11.82;10.70;;;;;;;-1.30;100.00;100312.06;10199795;28;20378;-69
2024/01/16 06:41:13;;;;;;;11.98;11.07;;;;;;;-1.31;100.00;100305.09;10199589;28;20417;-70
2024/01/16 06:46:10;;;;;;;12.77;11.48;;;;;;;-1.31;100.00;100311.25;10199197;28;20072;-69
2024/01/16 06:51:07;;;;;;;11.18;10.38;;;;;;;-1.30;100.00;100314.75;10199022;28;20560;-69
2024/01/16 06:56:06;;;;;;;12.23;11.20;;;;;;;-1.32;100.00;100324.94;10198927;28;20416;-70
2024/01/16 07:01:03;;;;;;;12.32;11.23;;;;;;;-1.31;100.00;100321.19;10198398;28;20132;-70
2024/01/16 07:06:00;;;;;;;11.73;10.68;;;;;;;-1.31;100.00;100310.44;10198881;28;20066;-69
2024/01/16 07:10:56;;;;;;;11.60;10.60;;;;;;;-1.35;100.00;100301.28;10198026;28;20084;-70
2024/01/16 07:15:53;;;;;;;12.20;10.77;;;;;;;-1.40;100.00;100306.56;10197233;28;20084;-70
2024/01/16 07:20:49;;;;;;;20.10;11.80;;;;;;;-1.42;100.00;100308.69;10198443;28;20520;-69
2024/01/16 07:25:46;;;;;;;12.45;11.30;;;;;;;-1.45;100.00;100311.88;10190300;28;20419;-69
2024/01/16 07:30:42;;;;;;;12.77;11.35;;;;;;;-1.40;100.00;100309.25;10198274;28;20046;-68
2024/01/16 07:35:41;;;;;;;12.88;10.88;;;;;;;-1.41;100.00;100310.34;10196642;28;20056;-68
2024/01/16 07:40:37;;;;;;;13.50;12.07;;;;;;;-1.32;100.00;100314.22;10193592;28;20046;-69
2024/01/16 07:45:34;;;;;;;13.35;12.05;;;;;;;-1.34;100.00;100316.31;10197516;28;20065;-69
2024/01/16 07:50:30;;;;;;;14.20;12.55;;;;;;;-1.33;100.00;100308.00;10196961;28;20564;-69
2024/01/16 07:55:27;;;;;;;15.27;12.40;;;;;;;-1.40;100.00;100307.38;10194737;28;20041;-69
2024/01/16 08:00:24;;;;;;;13.73;12.32;;;;;;;-1.32;100.00;100298.13;10197535;28;20104;-69
2024/01/16 08:05:24;;;;;;;14.07;12.65;;;;;;;-1.26;100.00;100305.16;10195600;28;20835;-70
2024/01/16 08:10:21;;;;;;;12.73;11.57;;;;;;;-1.31;100.00;100311.25;10196655;28;20096;-70
2024/01/16 08:15:17;;;;;;;13.98;11.88;;;;;;;-1.29;100.00;100325.25;10195659;28;20038;-70
2024/01/16 08:20:14;;;;;;;11.63;10.70;;;;;;;-1.24;100.00;100326.38;10195332;28;20041;-70
2024/01/16 08:25:10;;;;;;;12.27;11.27;;;;;;;-1.29;100.00;100324.44;10195742;28;20048;-70
2024/01/16 08:30:07;;;;;;;11.40;10.30;;;;;;;-1.15;100.00;100324.88;10194909;28;20050;-69
2024/01/16 08:35:05;;;;;;;11.43;9.95;;;;;;;-1.20;100.00;100336.34;10195218;28;20138;-70
2024/01/16 08:40:03;;;;;;;12.18;10.98;;;;;;;-1.26;100.00;100318.56;10194394;28;20048;-70
2024/01/16 08:45:00;;;;;;;10.85;9.98;;;;;;;-1.21;100.00;100321.31;10195556;28;20046;-70
2024/01/16 08:49:57;;;;;;;11.07;10.05;;;;;;;-1.21;100.00;100317.81;10194464;28;20124;-71
2024/01/16 08:54:54;;;;;;;11.70;10.38;;;;;;;-1.19;100.00;100308.44;10194636;28;20513;-71
2024/01/16 08:59:50;;;;;;;13.02;11.40;;;;;;;-1.22;100.00;100314.31;10193943;28;20046;-71
2024/01/16 09:04:50;;;;;;;13.10;11.70;;;;;;;-1.22;100.00;100321.56;10193851;28;20069;-71
2024/01/16 09:09:46;;;;;;;11.85;10.63;;;;;;;-1.14;100.00;100326.47;10193934;28;20045;-71
2024/01/16 09:14:43;;;;;;;17.45;11.80;;;;;;;-1.13;100.00;100334.28;10193925;28;20532;-72
2024/01/16 09:19:39;;;;;;;15.30;11.07;;;;;;;-1.12;100.00;100341.28;10193253;28;20462;-71
2024/01/16 09:24:36;;;;;;;12.18;11.00;;;;;;;-1.12;100.00;100343.94;10192471;28;20099;-71
2024/01/16 09:29:33;;;;;;;11.43;10.43;;;;;;;-1.12;100.00;100346.63;10194098;28;20058;-71
2024/01/16 09:34:29;;;;;;;11.38;10.32;;;;;;;-1.13;100.00;100345.03;10192327;28;20038;-72
2024/01/16 09:39:26;;;;;;;12.38;11.05;;;;;;;-1.06;100.00;100372.47;10193486;28;20048;-72
2024/01/16 09:44:23;;;;;;;11.07;10.13;;;;;;;-1.03;100.00;100381.09;10189273;28;20133;-71
2024/01/16 09:49:19;;;;;;;11.00;9.80;;;;;;;-1.07;100.00;100365.50;10193612;28;20038;-72
2024/01/16 09:54:16;;;;;;;11.25;10.20;;;;;;;-1.13;100.00;100376.41;10192281;28;20076;-72
2024/01/16 09:59:20;;;;;;;11.27;9.60;;;;;;;-1.05;100.00;100370.59;10192484;28;20054;-72
2024/01/16 10:04:17;;;;;;;10.35;9.40;;;;;;;-1.06;100.00;100377.84;10192440;28;20153;-72
2024/01/16 10:09:14;;;;;;;10.50;9.40;;;;;;;-0.97;100.00;100386.28;10192229;28;20131;-71
2024/01/16 10:14:11;;;;;;;10.65;9.55;;;;;;;-0.94;100.00;100385.78;10192574;28;20100;-71
2024/01/16 10:19:08;;;;;;;10.30;9.25;;;;;;;-0.95;100.00;100391.38;10192032;28;20483;-72
2024/01/16 10:24:12;;;;;;;10.65;9.80;;;;;;;-0.89;100.00;100398.44;10191489;28;20132;-72
2024/01/16 10:29:09;;;;;;;11.35;9.35;;;;;;;-0.90;100.00;100396.84;10192939;28;20046;-72
2024/01/16 10:34:19;;;;;;;10.52;9.20;;;;;;;-0.77;100.00;100391.06;10191011;28;20142;-71
2024/01/16 10:39:16;;;;;;;10.48;9.43;;;;;;;-0.70;100.00;100401.63;10192685;28;20054;-72
2024/01/16 10:44:13;;;;;;;11.23;9.57;;;;;;;-0.72;100.00;100393.84;10191235;28;20042;-72
2024/01/16 10:49:09;;;;;;;13.77;9.93;;;;;;;-0.68;100.00;100411.06;10189918;28;20513;-72
2024/01/16 10:54:08;;;;;;;10.50;9.00;;;;;;;-0.67;100.00;100404.63;10191385;28;20038;-72
2024/01/16 10:59:18;;;;;;;10.00;8.98;;;;;;;-0.62;100.00;100405.75;10191043;28;20464;-72
2024/01/16 11:04:15;;;;;;;9.77;8.90;;;;;;;-0.65;100.00;100407.88;10196626;28;20129;-72
2024/01/16 11:09:16;;;;;;;11.05;9.63;;;;;;;-0.66;100.00;100417.00;10199358;28;20133;-72
2024/01/16 11:14:14;;;;;;;10.88;9.88;;;;;;;-0.55;100.00;100409.88;10197585;28;20073;-72
2024/01/16 11:19:11;;;;;;;10.52;9.50;;;;;;;-0.55;100.00;100414.44;10197729;28;20073;-72
2024/01/16 11:24:27;;;;;;;11.10;10.07;;;;;;;-0.48;100.00;100421.22;10198151;28;20617;-72
2024/01/16 11:29:27;;;;;;;11.52;10.63;;;;;;;-0.43;100.00;100412.41;10198093;28;20452;-72
2024/01/16 11:34:56;;;;;;;11.70;10.45;;;;;;;-0.35;100.00;100403.88;10197965;28;20062;-72
2024/01/16 11:40:16;;;;;;;10.73;9.70;;;;;;;-0.28;100.00;100399.16;10193667;28;20050;-72
2024/01/16 11:45:27;;;;;;;10.63;9.55;;;;;;;-0.28;100.00;100415.28;10186652;28;20116;-72
2024/01/16 11:50:29;;;;;;;11.53;10.43;;;;;;;-0.22;100.00;100414.25;10196576;28;20042;-72
2024/01/16 11:55:27;;;;;;;10.63;9.65;;;;;;;-0.14;100.00;100414.84;10195952;28;20038;-72
2024/01/16 12:00:28;;;;;;;11.98;10.23;;;;;;;-0.12;100.00;100434.22;10197067;28;20046;-73
2024/01/16 12:05:26;;;;;;;16.10;10.07;;;;;;;-0.08;100.00;100421.91;10195540;28;20052;-72
2024/01/16 12:10:25;;;;;;;22.17;11.43;;;;;;;-0.11;100.00;100419.72;10196721;28;20065;-72
2024/01/16 12:15:22;;;;;;;11.43;10.25;;;;;;;-0.15;100.00;100424.00;10193814;28;20163;-73
2024/01/16 12:20:18;;;;;;;12.15;10.85;;;;;;;0.03;100.00;100420.94;10194889;28;20042;-72
2024/01/16 12:25:19;;;;;;;11.18;10.18;;;;;;;0.11;100.00;100420.47;10195519;28;20401;-72
2024/01/16 12:30:16;;;;;;;11.82;9.70;;;;;;;0.10;100.00;100421.53;10194834;28;20052;-72
2024/01/16 12:35:19;;;;;;;14.10;10.52;;;;;;;0.09;100.00;100433.34;10195774;28;20098;-72
2024/01/16 12:40:17;;;;;;;10.13;8.15;;;;;;;0.07;100.00;100426.59;10195239;28;20060;-72
2024/01/16 12:45:13;;;;;;;9.90;8.40;;;;;;;0.02;100.00;100430.06;10193740;28;20533;-72
2024/01/16 12:50:10;;;;;;;10.23;8.57;;;;;;;0.06;100.00;100425.81;10195492;28;20042;-72
2024/01/16 12:55:08;;;;;;;12.15;9.68;;;;;;;-0.01;100.00;100425.19;10193354;28;20041;-72
2024/01/16 13:00:23;;;;;;;9.27;8.38;;;;;;;0.09;100.00;100427.97;10194228;28;20421;-72
2024/01/16 13:05:20;;;;;;;9.68;8.68;;;;;;;0.08;100.00;100417.50;10193999;28;20053;-72
2024/01/16 13:10:19;;;;;;;12.45;8.75;;;;;;;0.19;100.00;100414.63;10194079;28;20486;-73
2024/01/16 13:15:18;;;;;;;14.55;8.63;;;;;;;0.13;100.00;100410.25;10193783;28;20046;-73
2024/01/16 13:20:16;;;;;;;12.00;9.15;;;;;;;0.20;100.00;100397.41;10194421;28;20048;-72
2024/01/16 13:25:12;;;;;;;10.55;8.73;;;;;;;0.22;100.00;100401.75;10192938;28;20069;-72
2024/01/16 13:30:10;;;;;;;10.38;9.45;;;;;;;0.19;100.00;100398.50;10194576;28;20046;-73
2024/01/16 13:35:08;;;;;;;10.27;8.63;;;;;;;0.10;100.00;100399.22;10193286;28;20042;-72
2024/01/16 13:40:11;;;;;;;10.27;8.70;;;;;;;0.02;100.00;100407.75;10192823;28;20053;-72
2024/01/16 13:45:08;;;;;;;10.40;9.52;;;;;;;-0.02;100.00;100408.25;10193046;28;20038;-72
2024/01/16 13:50:06;;;;;;;10.68;9.60;;;;;;;-0.03;100.00;100416.56;10193353;28;20125;-73
2024/01/16 13:55:05;;;;;;;11.68;10.57;;;;;;;-0.05;100.00;100414.16;10192841;28;20065;-72
2024/01/16 14:00:07;;;;;;;15.35;10.18;;;;;;;-0.08;100.00;100416.53;10192642;28;20441;-72
2024/01/16 14:05:05;;;;;;;12.95;10.05;;;;;;;-0.16;100.00;100412.44;10191964;28;20076;-72
2024/01/16 14:10:03;;;;;;;11.85;10.75;;;;;;;0.01;100.00;100406.94;10192083;28;20053;-72
2024/01/16 14:15:09;;;;;;;12.95;11.75;;;;;;;-0.05;100.00;100410.63;10192182;28;20180;-72
2024/01/16 14:20:11;;;;;;;15.50;12.38;;;;;;;-0.03;100.00;100408.50;10191941;28;20042;-72
2024/01/16 14:25:12;;;;;;;14.65;12.30;;;;;;;0.01;100.00;100400.75;10191829;28;20065;-72
2024/01/16 14:30:13;;;;;;;16.45;12.75;;;;;;;-0.07;100.00;100396.63;10191701;28;20056;-72
2024/01/16 14:35:12;;;;;;;15.37;11.83;;;;;;;-0.07;100.00;100404.69;10191199;28;20077;-72
2024/01/16 14:40:12;;;;;;;13.50;12.07;;;;;;;-0.11;100.00;100409.78;10200347;28;20049;-72
2024/01/16 14:45:11;;;;;;;13.23;11.88;;;;;;;-0.14;100.00;100404.09;10198623;28;20046;-72
2024/01/16 14:50:09;;;;;;;12.30;11.15;;;;;;;-0.19;100.00;100402.19;10199974;28;20130;-72
2024/01/16 14:55:09;;;;;;;11.57;10.48;;;;;;;-0.23;100.00;100406.47;10198587;28;20462;-73
2024/01/16 15:00:13;;;;;;;12.55;11.30;;;;;;;-0.20;100.00;100410.50;10198783;28;20053;-72
2024/01/16 15:05:12;;;;;;;12.43;10.75;;;;;;;-0.25;100.00;100409.38;10198721;28;20108;-71
2024/01/16 15:10:11;;;;;;;11.68;10.77;;;;;;;-0.22;100.00;100411.56;10198151;28;20481;-72
2024/01/16 15:15:09;;;;;;;12.25;11.00;;;;;;;-0.18;100.00;100405.69;10198277;28;20046;-72
2024/01/16 15:20:10;;;;;;;14.52;11.90;;;;;;;-0.15;100.00;100402.50;10198484;28;20493;-72
2024/01/16 15:25:07;;;;;;;14.32;11.27;;;;;;;-0.14;100.00;100399.56;10196929;28;20046;-72
2024/01/16 15:30:04;;;;;;;13.40;11.13;;;;;;;-0.21;100.00;100398.94;10197856;28;20431;-72
2024/01/16 15:35:01;;;;;;;12.60;11.27;;;;;;;-0.09;100.00;100396.09;10198075;28;20084;-73
2024/01/16 15:39:59;;;;;;;17.70;10.48;;;;;;;-0.11;100.00;100399.03;10197658;28;20053;-72
2024/01/16 15:44:55;;;;;;;12.68;9.55;;;;;;;-0.12;100.00;100401.97;10196364;28;20057;-73
2024/01/16 15:49:54;;;;;;;13.55;10.40;;;;;;;-0.13;100.00;100395.00;10192634;28;20041;-72
2024/01/16 15:54:50;;;;;;;13.80;11.10;;;;;;;-0.06;100.00;100400.97;10187438;28;20045;-72
2024/01/16 15:59:47;;;;;;;19.17;11.00;;;;;;;-0.02;100.00;100407.47;10191913;28;20545;-72
2024/01/16 16:04:44;;;;;;;13.30;10.93;;;;;;;-0.07;100.00;100408.22;10195610;28;20460;-72
2024/01/16 16:09:40;;;;;;;12.88;11.68;;;;;;;-0.05;100.00;100402.56;10189630;28;20041;-72
2024/01/16 16:14:40;;;;;;;13.05;11.80;;;;;;;-0.03;100.00;100405.81;10195878;28;20037;-72
2024/01/16 16:19:36;;;;;;;15.95;13.85;;;;;;;-0.23;100.00;100393.81;10196785;28;20046;-72
2024/01/16 16:24:34;;;;;;;24.75;15.88;;;;;;;-0.23;100.00;100399.19;10181243;28;20121;-72
2024/01/16 16:29:31;;;;;;;19.52;17.67;;;;;;;-0.31;100.00;100394.28;10187226;28;20108;-72
2024/01/16 16:34:28;;;;;;;23.77;18.98;;;;;;;-0.38;100.00;100399.03;10194847;28;20070;-72
2024/01/16 16:39:24;;;;;;;20.65;17.45;;;;;;;-0.29;100.00;100402.88;10196210;28;20472;-72
2024/01/16 16:44:21;;;;;;;20.27;17.63;;;;;;;-0.27;100.00;100395.38;10194906;28;20060;-72
2024/01/16 16:49:18;;;;;;;22.75;18.98;;;;;;;-0.28;100.00;100387.56;10195738;28;20464;-72
2024/01/16 16:54:14;;;;;;;22.38;19.98;;;;;;;-0.31;100.00;100388.91;10193637;28;20044;-72
2024/01/16 16:59:11;;;;;;;25.85;19.05;;;;;;;-0.42;100.00;100381.78;10194452;28;20136;-72
2024/01/16 17:04:07;;;;;;;20.30;18.30;;;;;;;-0.38;100.00;100382.91;10193625;28;20049;-72
2024/01/16 17:09:06;;;;;;;19.05;17.17;;;;;;;-0.39;100.00;100375.13;10194906;28;20045;-72
2024/01/16 17:14:03;;;;;;;22.52;17.50;;;;;;;-0.41;100.00;100378.06;10193699;28;20057;-74
2024/01/16 17:19:00;;;;;;;20.92;17.42;;;;;;;-0.50;100.00;100374.19;10194170;28;20092;-72
2024/01/16 17:23:57;;;;;;;26.85;17.45;;;;;;;-0.51;100.00;100367.19;10192313;28;20073;-72
2024/01/16 17:28:53;;;;;;;20.55;18.45;;;;;;;-0.51;100.00;100367.19;10188722;28;20052;-72
2024/01/16 17:33:50;;;;;;;19.85;17.70;;;;;;;-0.62;100.00;100368.16;10193597;28;20050;-72
2024/01/16 17:38:48;;;;;;;25.95;17.85;;;;;;;-0.67;100.00;100364.34;10193798;28;20046;-72
2024/01/16 17:43:45;;;;;;;23.27;18.35;;;;;;;-0.68;100.00;100345.81;10192111;28;20053;-72
2024/01/16 17:48:43;;;;;;;20.45;17.95;;;;;;;-0.64;100.00;100353.09;10192512;28;20516;-72
2024/01/16 17:53:40;;;;;;;21.98;18.45;;;;;;;-0.67;100.00;100345.56;10191610;28;20041;-72
2024/01/16 17:58:36;;;;;;;24.63;20.42;;;;;;;-0.60;100.00;100341.84;10193386;28;20045;-72
2024/01/16 18:03:33;;;;;;;24.48;19.05;;;;;;;-0.61;100.00;100335.69;10183484;28;20041;-72
2024/01/16 18:08:39;;;;;;;27.35;19.83;;;;;;;-0.60;100.00;100336.47;10184870;28;20081;-72
2024/01/16 18:13:37;;;;;;;27.33;19.92;;;;;;;-0.61;100.00;100330.31;10191303;28;20069;-72
2024/01/16 18:18:33;;;;;;;20.77;18.60;;;;;;;-0.55;100.00;100328.50;10183719;28;20062;-72
2024/01/16 18:23:32;;;;;;;20.67;18.55;;;;;;;-0.58;100.00;100323.63;10192651;28;20046;-72
2024/01/16 18:28:28;;;;;;;21.10;18.83;;;;;;;-0.58;100.00;100334.34;10191730;28;20037;-73
2024/01/16 18:33:25;;;;;;;27.70;20.27;;;;;;;-0.57;100.00;100347.53;10192729;28;20049;-72
2024/01/16 18:38:21;;;;;;;23.02;18.27;;;;;;;-0.56;100.00;100338.41;10191381;28;20460;-72
2024/01/16 18:43:18;;;;;;;20.08;17.15;;;;;;;-0.53;100.00;100342.50;10191341;28;20457;-72
2024/01/16 18:48:14;;;;;;;21.55;17.58;;;;;;;-0.58;100.00;100345.09;10192006;28;20045;-72
2024/01/16 18:53:13;;;;;;;29.83;19.42;;;;;;;-0.58;100.00;100355.84;10190841;28;20646;-72
2024/01/16 18:58:10;;;;;;;22.88;18.50;;;;;;;-0.58;100.00;100351.31;10191317;28;20054;-72
2024/01/16 19:03:09;;;;;;;21.80;16.65;;;;;;;-0.64;100.00;100358.47;10190769;28;20084;-72
2024/01/16 19:08:07;;;;;;;21.83;15.63;;;;;;;-0.71;100.00;100347.13;10191313;28;20128;-72
2024/01/16 19:13:04;;;;;;;20.85;16.83;;;;;;;-0.77;100.00;100348.13;10191234;28;20050;-72
2024/01/16 19:18:01;;;;;;;17.33;15.63;;;;;;;-0.80;100.00;100354.00;10191587;28;20041;-72
2024/01/16 19:22:57;;;;;;;16.50;14.77;;;;;;;-0.80;100.00;100364.75;10193178;28;20080;-72
2024/01/16 19:27:54;;;;;;;20.95;14.85;;;;;;;-0.80;100.00;100363.94;10197831;28;20429;-72
2024/01/16 19:32:51;;;;;;;18.30;14.68;;;;;;;-0.85;100.00;100351.25;10198357;28;20061;-72
2024/01/16 19:37:47;;;;;;;18.05;15.32;;;;;;;-0.86;100.00;100355.81;10197029;28;20054;-72
2024/01/16 19:42:44;;;;;;;15.57;13.98;;;;;;;-0.87;100.00;100348.81;10197000;28;20733;-71
2024/01/16 19:47:41;;;;;;;20.98;15.18;;;;;;;-0.90;100.00;100353.91;10196767;28;20127;-71
2024/01/16 19:52:39;;;;;;;16.65;13.85;;;;;;;-0.94;100.00;100352.78;10197046;28;20053;-71
2024/01/16 19:57:35;;;;;;;19.52;13.07;;;;;;;-0.96;100.00;100365.63;10196979;28;20046;-72
2024/01/16 20:02:32;;;;;;;15.52;13.93;;;;;;;-1.09;100.00;100343.47;10196398;28;20045;-72
2024/01/16 20:07:29;;;;;;;17.45;12.18;;;;;;;-1.17;100.00;100346.56;10196536;28;20432;-72
2024/01/16 20:12:25;;;;;;;21.67;14.77;;;;;;;-1.24;100.00;100340.59;10197217;28;20074;-72
2024/01/16 20:17:36;;;;;;;18.42;13.80;;;;;;;-1.29;100.00;100340.53;10196453;28;20130;-72
2024/01/16 20:22:32;;;;;;;15.57;14.02;;;;;;;-1.33;100.00;100336.72;10195729;28;20086;-72
2024/01/16 20:27:29;;;;;;;14.13;12.70;;;;;;;-1.36;100.00;100331.84;10195751;28;20399;-72
2024/01/16 20:32:25;;;;;;;15.05;12.40;;;;;;;-1.34;100.00;100327.06;10195319;28;20298;-72
2024/01/16 20:37:22;;;;;;;15.27;13.77;;;;;;;-1.36;100.00;100321.94;10194685;28;20460;-72
2024/01/16 20:42:18;;;;;;;17.65;13.95;;;;;;;-1.34;100.00;100321.69;10185471;28;20046;-72
2024/01/16 20:47:16;;;;;;;16.48;12.25;;;;;;;-1.32;100.00;100325.75;10189366;28;20536;-71
2024/01/16 20:52:13;;;;;;;14.75;12.82;;;;;;;-1.34;100.00;100310.97;10195279;28;20041;-71
2024/01/16 20:57:10;;;;;;;16.40;11.77;;;;;;;-1.33;100.00;100307.22;10194059;28;20468;-71
2024/01/16 21:02:06;;;;;;;18.00;11.63;;;;;;;-1.38;100.00;100309.81;10195421;28;20049;-71
2024/01/16 21:07:03;;;;;;;13.82;11.85;;;;;;;-1.45;100.00;100309.19;10193066;28;20045;-70
2024/01/16 21:12:00;;;;;;;15.73;11.40;;;;;;;-1.46;100.00;100305.72;10194715;28;20050;-70
2024/01/16 21:17:01;;;;;;;16.48;12.20;;;;;;;-1.55;100.00;100305.31;10193394;28;20104;-70
2024/01/16 21:21:58;;;;;;;13.30;11.82;;;;;;;-1.58;100.00;100305.81;10193714;28;20573;-69
2024/01/16 21:26:55;;;;;;;16.00;12.35;;;;;;;-1.61;100.00;100290.22;10193591;28;20079;-69
2024/01/16 21:31:53;;;;;;;17.48;12.07;;;;;;;-1.64;100.00;100280.00;10193290;28;20065;-69
2024/01/16 21:36:51;;;;;;;16.02;12.98;;;;;;;-1.66;100.00;100274.06;10193385;28;20077;-69
2024/01/16 21:41:47;;;;;;;14.35;12.43;;;;;;;-1.68;100.00;100268.13;10193575;28;20446;-68
2024/01/16 21:46:44;;;;;;;13.60;11.55;;;;;;;-1.73;100.00;100260.84;10192961;28;20657;-68
2024/01/16 21:51:43;;;;;;;17.20;13.77;;;;;;;-1.74;100.00;100258.41;10192884;28;20450;-70
2024/01/16 21:56:40;;;;;;;18.95;11.93;;;;;;;-1.77;100.00;100251.66;10192036;28;20049;-70
2024/01/16 22:01:36;;;;;;;19.63;12.60;;;;;;;-1.78;100.00;100247.38;10193301;28;20054;-69
2024/01/16 22:06:36;;;;;;;21.00;12.52;;;;;;;-1.81;100.00;100231.78;10190753;28;20445;-69